createdAt,value
2018-11-23T08:09:09.813Z,34.80
2018-11-23T08:11:38.862Z,35.17
2018-11-23T08:14:07.666Z,36.57
2018-11-23T08:16:36.568Z,38.20
2018-11-23T08:19:06.732Z,35.07
2018-11-23T08:21:36.535Z,35.60
2018-11-23T08:24:05.479Z,35.67
2018-11-23T08:26:35.384Z,32.73
2018-11-23T08:29:04.232Z,35.40
2018-11-23T08:31:32.933Z,33.60
2018-11-23T08:34:01.408Z,31.30
2018-11-23T08:36:29.936Z,33.53
2018-11-23T08:38:58.411Z,32.80
2018-11-23T08:41:26.887Z,31.83
2018-11-23T08:43:55.344Z,35.93
2018-11-23T08:46:23.998Z,33.10
2018-11-23T08:48:52.676Z,32.73
2018-11-23T08:51:21.180Z,32.33
2018-11-23T08:53:49.719Z,39.63
2018-11-23T08:56:18.250Z,38.83
2018-11-23T08:58:46.720Z,38.50
2018-11-23T09:01:15.278Z,35.33
2018-11-23T09:03:43.775Z,44.00
2018-11-23T09:06:12.335Z,42.23
2018-11-23T09:08:40.845Z,41.37
2018-11-23T09:11:09.383Z,41.93
2018-11-23T09:13:38.264Z,43.03
2018-11-23T09:16:07.290Z,43.27
2018-11-23T09:18:35.880Z,47.80
2018-11-23T09:21:04.463Z,44.37
2018-11-23T09:23:33.013Z,44.47
2018-11-23T09:26:01.552Z,48.60
2018-11-23T09:28:30.047Z,49.80
2018-11-23T09:30:58.770Z,45.00
2018-11-23T09:33:27.270Z,39.33
2018-11-23T09:35:55.794Z,41.57
2018-11-23T09:38:24.283Z,37.03
2018-11-23T09:40:52.826Z,33.10
2018-11-23T09:43:22.212Z,36.53
2018-11-23T09:45:50.777Z,33.43
2018-11-23T09:48:19.278Z,31.53
2018-11-23T09:50:47.802Z,27.83
2018-11-23T09:53:16.345Z,32.57
2018-11-23T09:55:44.859Z,30.83
2018-11-23T09:58:13.610Z,27.27
2018-11-23T10:00:42.151Z,30.63
2018-11-23T10:03:10.685Z,29.27
2018-11-23T10:05:39.192Z,26.80
2018-11-23T10:08:08.023Z,27.20
2018-11-23T10:10:36.507Z,26.93
2018-11-23T10:13:05.109Z,29.60
2018-11-23T10:15:34.551Z,29.33
2018-11-23T10:18:03.138Z,28.77
2018-11-23T10:20:32.671Z,28.80
2018-11-23T10:23:02.130Z,29.30
2018-11-23T10:25:31.964Z,29.53
2018-11-23T10:28:00.511Z,30.73
2018-11-23T10:30:31.153Z,30.47
2018-11-23T10:33:00.961Z,30.27
2018-11-23T10:35:29.606Z,30.73
2018-11-23T10:37:59.351Z,30.47
2018-11-23T10:40:29.642Z,29.93
2018-11-23T10:42:58.343Z,30.27
2018-11-23T10:45:28.292Z,29.30
2018-11-23T10:47:58.259Z,28.90
2018-11-23T10:50:28.355Z,28.37
2018-11-23T10:52:56.854Z,26.53
2018-11-23T10:55:26.940Z,27.63
2018-11-23T10:57:55.398Z,29.83
2018-11-23T11:00:28.974Z,27.13
2018-11-23T11:03:02.741Z,29.97
2018-11-23T11:05:41.382Z,28.00
2018-11-23T11:08:09.834Z,28.53
2018-11-23T11:10:38.264Z,29.63
2018-11-23T11:13:06.738Z,26.77
2018-11-23T11:15:35.150Z,29.33
2018-11-23T11:18:03.594Z,27.83
2018-11-23T11:20:32.039Z,31.60
2018-11-23T11:23:00.506Z,27.33
2018-11-23T11:25:28.952Z,28.90
2018-11-23T11:27:57.358Z,28.73
2018-11-23T11:30:25.827Z,29.43
2018-11-23T11:32:54.248Z,29.00
2018-11-23T11:35:22.728Z,29.47
2018-11-23T11:37:51.170Z,29.10
2018-11-23T11:40:20.359Z,26.93
2018-11-23T11:42:48.787Z,26.90
2018-11-23T11:45:18.370Z,28.73
2018-11-23T11:47:47.357Z,27.73
2018-11-23T11:50:16.008Z,28.03
2018-11-23T11:52:45.862Z,29.50
2018-11-23T11:55:15.716Z,26.93
2018-11-23T11:57:44.723Z,32.60
2018-11-23T12:00:27.636Z,28.03
2018-11-23T12:02:56.305Z,27.47
2018-11-23T12:05:24.754Z,28.40
2018-11-23T12:07:53.193Z,26.73
2018-11-23T12:10:23.253Z,28.80
2018-11-23T12:12:51.800Z,30.27
2018-11-23T12:15:20.256Z,32.63
2018-11-23T12:17:48.694Z,31.87
2018-11-23T12:20:18.480Z,30.70
2018-11-23T12:22:47.615Z,29.93
2018-11-23T12:25:16.567Z,33.50
2018-11-23T12:27:46.159Z,29.27
2018-11-23T12:30:16.415Z,30.70
2018-11-23T12:32:45.976Z,28.87
2018-11-23T12:35:15.269Z,31.10
2018-11-23T12:37:43.747Z,29.80
2018-11-23T12:40:13.570Z,31.20
2018-11-23T12:42:42.267Z,29.90
2018-11-23T12:45:12.895Z,29.83
2018-11-23T12:47:41.391Z,31.43
2018-11-23T12:50:14.867Z,30.90
2018-11-23T12:52:43.314Z,30.87
2018-11-23T12:55:12.315Z,30.97
2018-11-23T12:57:41.243Z,30.40
2018-11-23T13:00:23.798Z,27.87
2018-11-23T13:02:54.772Z,30.23
2018-11-23T13:05:24.420Z,33.27
2018-11-23T13:07:53.860Z,33.50
2018-11-23T13:10:23.523Z,32.37
2018-11-23T13:12:52.224Z,31.37
2018-11-23T13:15:20.746Z,30.77
2018-11-23T13:17:49.685Z,32.57
2018-11-23T13:20:18.323Z,34.47
2018-11-23T13:22:46.834Z,31.87
2018-11-23T13:25:17.500Z,33.73
2018-11-23T13:27:46.082Z,31.83
2018-11-23T13:30:21.930Z,32.40
2018-11-23T13:32:50.363Z,33.43
2018-11-23T13:35:19.475Z,31.33
2018-11-23T13:37:47.931Z,34.90
2018-11-23T13:40:17.725Z,34.40
2018-11-23T13:42:46.587Z,32.33
2018-11-23T13:45:16.402Z,33.23
2018-11-23T13:47:44.877Z,33.37
2018-11-23T13:50:14.647Z,36.70
2018-11-23T13:52:44.142Z,35.47
2018-11-23T13:55:12.611Z,33.27
2018-11-23T13:57:41.051Z,35.07
2018-11-23T14:00:12.053Z,34.67
2018-11-23T14:02:40.580Z,35.00
2018-11-23T14:05:11.666Z,36.83
2018-11-23T14:07:40.390Z,35.57
2018-11-23T14:10:10.673Z,34.13
2018-11-23T14:12:39.132Z,31.27
2018-11-23T14:15:10.102Z,34.50
2018-11-23T14:17:38.700Z,35.53
2018-11-23T14:20:08.950Z,33.23
2018-11-23T14:22:37.595Z,35.40
2018-11-23T14:25:06.506Z,35.33
2018-11-23T14:27:35.015Z,34.33
2018-11-23T14:30:03.516Z,38.87
2018-11-23T14:32:32.005Z,35.43
2018-11-23T14:35:00.416Z,35.27
2018-11-23T14:37:28.856Z,32.40
2018-11-23T14:39:57.326Z,37.30
2018-11-23T14:42:25.822Z,35.73
2018-11-23T14:44:54.336Z,35.47
2018-11-23T14:47:22.926Z,33.50
2018-11-23T14:49:51.453Z,38.73
2018-11-23T14:52:19.964Z,35.50
2018-11-23T14:54:48.427Z,39.60
2018-11-23T14:57:17.414Z,34.70
2018-11-23T14:59:46.062Z,41.60
2018-11-23T15:02:14.853Z,40.93
2018-11-23T15:04:44.185Z,41.10
2018-11-23T15:07:13.040Z,36.87
2018-11-23T15:09:41.799Z,38.00
2018-11-23T15:12:10.629Z,41.57
2018-11-23T15:14:39.442Z,37.00
2018-11-23T15:17:08.188Z,38.83
2018-11-23T15:19:37.486Z,38.80
2018-11-23T15:22:06.801Z,40.43
2018-11-23T15:24:37.250Z,44.60
2018-11-23T15:27:06.045Z,43.60
2018-11-23T15:29:34.884Z,38.93
2018-11-23T15:32:03.502Z,43.17
2018-11-23T15:34:32.318Z,41.53
2018-11-23T15:37:01.015Z,41.87
2018-11-23T15:39:30.771Z,42.63
2018-11-23T15:42:02.834Z,40.40
2018-11-23T15:44:31.464Z,41.50
2018-11-23T15:47:00.092Z,42.13
2018-11-23T15:49:28.600Z,40.57
2018-11-23T15:51:57.187Z,41.80
2018-11-23T15:54:25.764Z,42.70
2018-11-23T15:56:54.381Z,42.03
2018-11-23T15:59:22.960Z,40.77
2018-11-23T16:01:51.568Z,38.70
2018-11-23T16:04:20.142Z,41.47
2018-11-23T16:06:48.700Z,38.43
2018-11-23T16:09:17.271Z,46.23
2018-11-23T16:11:45.851Z,39.97
2018-11-23T16:14:14.447Z,42.33
2018-11-23T16:16:42.999Z,40.87
2018-11-23T16:19:11.547Z,44.83
2018-11-23T16:21:40.147Z,40.97
2018-11-23T16:24:08.715Z,36.77
2018-11-23T16:26:37.255Z,41.23
2018-11-23T16:29:05.796Z,40.37
2018-11-23T16:31:34.391Z,40.60
2018-11-23T16:34:02.964Z,46.87
2018-11-23T16:36:31.609Z,39.33
2018-11-23T16:39:00.240Z,37.37
2018-11-23T16:41:28.943Z,39.00
2018-11-23T16:43:57.631Z,42.47
2018-11-23T16:46:26.304Z,41.40
2018-11-23T16:48:54.936Z,41.27
2018-11-23T16:51:23.651Z,40.37
2018-11-23T16:53:52.298Z,40.23
2018-11-23T16:56:20.910Z,40.73
2018-11-23T16:58:49.578Z,38.37
2018-11-23T17:01:18.198Z,38.73
2018-11-23T17:03:46.835Z,39.90
2018-11-23T17:06:15.492Z,36.83
2018-11-23T17:08:44.152Z,36.50
2018-11-23T17:11:12.799Z,35.07
2018-11-23T17:13:41.487Z,35.37
2018-11-23T17:16:10.076Z,35.03
2018-11-23T17:18:38.775Z,34.17
2018-11-23T17:21:07.402Z,37.20
2018-11-23T17:23:36.081Z,33.53
2018-11-23T17:26:04.768Z,32.13
2018-11-23T17:28:33.598Z,33.73
2018-11-23T17:31:02.232Z,26.00
2018-11-23T17:33:30.985Z,31.67
2018-11-23T17:35:59.680Z,30.70
2018-11-23T17:38:28.442Z,32.27
2018-11-23T17:40:57.148Z,30.30
2018-11-23T17:43:25.901Z,29.93
2018-11-23T17:45:54.551Z,28.00
2018-11-23T17:48:23.276Z,31.83
2018-11-23T17:50:52.017Z,24.60
2018-11-23T17:53:20.726Z,28.57
2018-11-23T17:55:49.386Z,26.57
2018-11-23T17:58:18.177Z,27.10
2018-11-23T18:00:46.860Z,26.70
2018-11-23T18:03:15.672Z,26.90
2018-11-23T18:05:44.368Z,25.90
2018-11-23T18:08:13.095Z,27.00
2018-11-23T18:10:41.836Z,26.27
2018-11-23T18:13:10.599Z,27.73
2018-11-23T18:15:39.321Z,26.00
2018-11-23T18:18:08.045Z,25.33
2018-11-23T18:20:36.900Z,25.80
2018-11-23T18:23:06.378Z,25.07
2018-11-23T18:25:37.642Z,30.67
2018-11-23T18:28:06.460Z,21.43
2018-11-23T18:30:35.321Z,23.93
2018-11-23T18:33:07.863Z,27.50
2018-11-23T18:35:36.781Z,25.23
2018-11-23T18:38:05.666Z,26.97
2018-11-23T18:40:37.541Z,25.17
2018-11-23T18:43:03.280Z,24.07
2018-11-23T18:45:32.026Z,26.50
2018-11-23T18:48:00.787Z,23.77
2018-11-23T18:50:29.512Z,26.37
2018-11-23T18:52:58.211Z,26.17
2018-11-23T18:55:27.038Z,25.53
2018-11-23T18:57:55.688Z,25.33
2018-11-23T19:00:24.441Z,25.00
2018-11-23T19:02:53.232Z,23.70
2018-11-23T19:05:23.516Z,25.23
2018-11-23T19:07:52.276Z,27.50
2018-11-23T19:10:20.973Z,25.07
2018-11-23T19:12:49.641Z,26.20
2018-11-23T19:15:25.111Z,24.63
2018-11-23T19:17:47.799Z,25.47
2018-11-23T19:20:19.353Z,25.07
2018-11-23T19:22:52.165Z,25.33
2018-11-23T19:25:20.955Z,27.60
2018-11-23T19:27:49.707Z,22.07
2018-11-23T19:30:19.608Z,23.30
2018-11-23T19:32:48.397Z,23.40
2018-11-23T19:35:17.206Z,24.17
2018-11-23T19:37:46.028Z,24.40
2018-11-23T19:40:15.688Z,24.60
2018-11-23T19:42:45.139Z,25.43
2018-11-23T19:45:17.983Z,24.93
2018-11-23T19:47:46.830Z,26.57
2018-11-23T19:53:08.876Z,24.20
2018-11-23T19:55:37.993Z,24.13
2018-11-23T19:58:07.787Z,25.70
2018-11-23T20:00:36.636Z,26.33
2018-11-23T20:03:05.724Z,24.47
2018-11-23T20:05:34.559Z,23.40
2018-11-23T20:08:03.767Z,24.53
2018-11-23T20:10:32.794Z,24.57
2018-11-23T20:13:01.733Z,25.30
2018-11-23T20:15:30.504Z,26.10
2018-11-23T20:21:57.529Z,26.43
2018-11-23T20:30:18.885Z,24.63
2018-11-23T20:32:47.857Z,27.73
2018-11-23T20:35:17.914Z,25.97
2018-11-23T20:37:46.725Z,24.83
2018-11-23T20:40:17.789Z,27.93
2018-11-23T20:42:46.656Z,24.60
2018-11-23T20:45:15.593Z,26.07
2018-11-23T20:47:44.328Z,26.17
2018-11-23T20:50:14.093Z,28.37
2018-11-23T20:52:42.768Z,25.03
2018-11-23T20:55:16.218Z,29.70
2018-11-23T20:57:45.112Z,27.73
2018-11-23T21:00:17.192Z,27.33
2018-11-23T21:02:55.135Z,30.23
2018-11-23T21:08:18.552Z,27.57
2018-11-23T21:10:47.303Z,29.13
2018-11-23T21:13:16.041Z,27.53
2018-11-23T21:15:44.843Z,30.40
2018-11-23T21:18:13.778Z,33.53
2018-11-23T21:20:42.660Z,32.27
2018-11-23T21:29:15.797Z,29.90
2018-11-23T21:31:44.536Z,31.10
2018-11-23T21:34:13.368Z,33.77
2018-11-23T21:36:47.307Z,31.83
2018-11-23T21:39:16.625Z,29.77
2018-11-23T21:46:49.275Z,34.00
2018-11-23T21:49:18.099Z,33.77
2018-11-23T21:51:47.029Z,35.20
2018-11-23T21:54:15.880Z,37.67
2018-11-23T21:56:44.744Z,38.50
2018-11-23T21:59:13.755Z,36.00
2018-11-23T22:01:42.710Z,38.70
2018-11-23T22:04:11.606Z,36.87
2018-11-23T22:06:40.486Z,38.07
2018-11-23T22:09:09.319Z,34.97
2018-11-23T22:11:38.178Z,36.67
2018-11-23T22:14:06.951Z,38.33
2018-11-23T22:16:35.784Z,33.33
2018-11-23T22:19:04.767Z,36.30
2018-11-23T22:21:33.491Z,38.17
2018-11-23T22:24:02.345Z,39.67
2018-11-23T22:26:31.171Z,38.67
2018-11-23T22:29:00.173Z,43.53
2018-11-23T22:31:29.418Z,44.67
2018-11-23T22:40:20.655Z,48.50
2018-11-23T22:42:58.266Z,45.43
2018-11-23T22:45:27.439Z,44.93
2018-11-23T22:51:40.189Z,51.47
2018-11-23T22:57:21.913Z,51.17
2018-11-23T22:59:50.880Z,45.30
2018-11-23T23:02:19.692Z,52.50
2018-11-23T23:04:48.469Z,50.63
2018-11-23T23:07:17.225Z,49.17
2018-11-23T23:09:46.037Z,49.50
2018-11-23T23:12:14.852Z,54.00
2018-11-23T23:14:43.664Z,60.03
2018-11-23T23:17:12.430Z,53.13
2018-11-23T23:19:41.179Z,54.50
2018-11-23T23:22:10.131Z,53.93
2018-11-23T23:24:39.014Z,54.07
2018-11-23T23:27:07.927Z,53.60
2018-11-23T23:29:36.614Z,53.67
2018-11-23T23:32:05.448Z,62.43
2018-11-23T23:34:34.079Z,59.63
2018-11-23T23:37:02.659Z,61.07
2018-11-23T23:39:31.288Z,54.97
2018-11-23T23:41:59.840Z,56.27
2018-11-23T23:44:28.553Z,62.30
2018-11-23T23:46:57.120Z,53.67
2018-11-23T23:49:25.641Z,54.40
2018-11-23T23:51:54.193Z,54.13
2018-11-23T23:54:22.769Z,57.63
2018-11-23T23:56:51.271Z,61.40
2018-11-23T23:59:19.918Z,59.30
